createdAt,value
2023-03-06T00:01:09.129Z,3.95
2023-03-06T00:03:36.087Z,4.70
2023-03-06T00:06:03.080Z,5.85
2023-03-06T00:08:31.224Z,4.75
2023-03-06T00:10:59.122Z,5.37
2023-03-06T00:13:26.007Z,5.45
2023-03-06T00:15:52.883Z,5.38
2023-03-06T00:18:19.755Z,3.53
2023-03-06T00:20:46.529Z,3.40
2023-03-06T00:23:13.319Z,6.78
2023-03-06T00:25:44.439Z,6.97
2023-03-06T00:28:11.276Z,7.53
2023-03-06T00:30:38.160Z,6.78
2023-03-06T00:33:04.885Z,7.60
2023-03-06T00:35:31.881Z,9.18
2023-03-06T00:38:08.426Z,6.68
2023-03-06T00:40:35.225Z,8.38
2023-03-06T00:43:03.319Z,9.20
2023-03-06T00:45:30.177Z,9.43
2023-03-06T00:47:57.078Z,8.57
2023-03-06T00:50:23.836Z,10.45
2023-03-06T00:52:50.590Z,10.27
2023-03-06T00:55:17.465Z,7.82
2023-03-06T00:57:44.208Z,9.40
2023-03-06T01:00:17.115Z,8.93
2023-03-06T01:02:43.862Z,9.23
2023-03-06T01:05:12.841Z,10.43
2023-03-06T01:10:07.560Z,8.93
2023-03-06T01:12:34.584Z,9.63
2023-03-06T01:15:01.620Z,7.75
2023-03-06T01:17:29.772Z,7.80
2023-03-06T01:19:57.664Z,7.45
2023-03-06T01:22:24.461Z,8.00
2023-03-06T01:24:51.221Z,7.07
2023-03-06T01:27:20.350Z,6.88
2023-03-06T01:29:47.086Z,9.25
2023-03-06T01:32:13.830Z,8.98
2023-03-06T01:34:41.953Z,8.07
2023-03-06T01:37:08.705Z,8.20
2023-03-06T01:39:35.464Z,8.30
2023-03-06T01:42:02.252Z,8.10
2023-03-06T01:44:29.000Z,8.07
2023-03-06T01:46:55.728Z,8.43
2023-03-06T01:49:27.288Z,7.93
2023-03-06T01:52:01.944Z,8.27
2023-03-06T01:54:32.597Z,7.47
2023-03-06T01:57:03.159Z,8.48
2023-03-06T01:59:35.418Z,8.32
2023-03-06T02:02:03.992Z,8.13
2023-03-06T02:04:31.320Z,7.78
2023-03-06T02:07:03.126Z,7.75
2023-03-06T02:09:30.028Z,6.15
2023-03-06T02:11:56.780Z,9.18
2023-03-06T02:14:23.863Z,7.00
2023-03-06T02:16:51.045Z,8.32
2023-03-06T02:19:28.863Z,8.20
2023-03-06T02:21:55.744Z,5.30
2023-03-06T02:24:34.398Z,6.00
2023-03-06T02:27:05.316Z,7.53
2023-03-06T02:29:33.704Z,7.85
2023-03-06T02:32:00.588Z,8.43
2023-03-06T02:34:52.258Z,7.57
2023-03-06T02:37:19.916Z,7.82
2023-03-06T02:39:51.936Z,8.30
2023-03-06T02:42:23.671Z,6.60
2023-03-06T02:44:52.460Z,7.35
2023-03-06T02:47:19.446Z,8.00
2023-03-06T02:49:46.237Z,7.95
2023-03-06T02:52:13.135Z,7.70
2023-03-06T02:54:39.898Z,7.45
2023-03-06T02:57:06.653Z,8.20
2023-03-06T02:59:34.742Z,6.97
2023-03-06T03:02:01.518Z,7.67
2023-03-06T03:04:28.358Z,6.68
2023-03-06T03:06:55.132Z,7.80
2023-03-06T03:09:21.888Z,5.80
2023-03-06T03:11:48.660Z,5.85
2023-03-06T03:14:15.413Z,8.35
2023-03-06T03:16:43.558Z,8.05
2023-03-06T03:19:10.330Z,7.88
2023-03-06T03:21:37.057Z,5.95
2023-03-06T03:24:04.065Z,7.32
2023-03-06T03:26:30.824Z,7.75
2023-03-06T03:28:57.569Z,5.05
2023-03-06T03:31:25.547Z,4.65
2023-03-06T03:33:53.645Z,6.35
2023-03-06T03:36:20.400Z,8.55
2023-03-06T03:38:47.161Z,8.45
2023-03-06T03:41:13.927Z,9.73
2023-03-06T03:43:40.687Z,9.10
2023-03-06T03:46:07.456Z,8.20
2023-03-06T03:48:34.272Z,9.18
2023-03-06T03:51:09.491Z,8.80
2023-03-06T03:53:36.488Z,9.95
2023-03-06T03:56:03.591Z,8.70
2023-03-06T03:58:30.367Z,7.32
2023-03-06T04:00:57.331Z,6.78
2023-03-06T04:03:24.051Z,8.32
2023-03-06T04:05:50.790Z,5.70
2023-03-06T04:08:18.858Z,7.80
2023-03-06T04:10:45.727Z,5.67
2023-03-06T04:13:12.474Z,8.35
2023-03-06T04:15:39.249Z,5.88
2023-03-06T04:18:06.149Z,8.50
2023-03-06T04:20:32.875Z,7.95
2023-03-06T04:22:59.600Z,5.85
2023-03-06T04:25:27.703Z,9.50
2023-03-06T04:27:54.435Z,8.83
2023-03-06T04:30:21.303Z,8.25
2023-03-06T04:32:48.002Z,8.20
2023-03-06T04:35:14.796Z,8.35
2023-03-06T04:37:41.682Z,4.43
2023-03-06T04:40:16.175Z,8.45
2023-03-06T04:42:44.326Z,8.35
2023-03-06T04:45:11.696Z,6.23
2023-03-06T04:47:38.424Z,8.88
2023-03-06T04:50:06.453Z,8.20
2023-03-06T04:52:33.319Z,8.00
2023-03-06T04:55:00.477Z,7.00
2023-03-06T04:57:27.324Z,6.03
2023-03-06T04:59:55.547Z,6.70
2023-03-06T05:02:22.276Z,8.40
2023-03-06T05:04:48.998Z,7.93
2023-03-06T05:07:15.749Z,6.70
2023-03-06T05:09:42.480Z,7.55
2023-03-06T05:12:09.250Z,6.05
2023-03-06T05:14:36.014Z,6.78
2023-03-06T05:17:04.206Z,7.55
2023-03-06T05:19:31.439Z,6.65
2023-03-06T05:21:58.182Z,6.63
2023-03-06T05:24:24.956Z,4.72
2023-03-06T05:26:51.704Z,7.43
2023-03-06T05:29:18.471Z,6.30
2023-03-06T05:31:46.338Z,7.28
2023-03-06T05:34:15.664Z,6.93
2023-03-06T05:36:42.842Z,6.20
2023-03-06T05:39:09.950Z,5.97
2023-03-06T05:41:36.705Z,6.32
2023-03-06T05:44:03.527Z,6.28
2023-03-06T05:46:30.326Z,6.55
2023-03-06T05:48:57.251Z,5.15
2023-03-06T05:51:25.755Z,5.82
2023-03-06T05:53:52.596Z,5.60
2023-03-06T05:56:19.344Z,4.72
2023-03-06T05:58:46.073Z,5.22
2023-03-06T06:01:14.842Z,5.93
2023-03-06T06:03:41.700Z,6.55
2023-03-06T06:06:10.628Z,5.75
2023-03-06T06:08:39.387Z,5.93
2023-03-06T06:11:06.832Z,7.55
2023-03-06T06:13:34.164Z,6.50
2023-03-06T06:16:05.804Z,7.20
2023-03-06T06:18:32.592Z,6.30
2023-03-06T06:20:59.344Z,6.28
2023-03-06T06:23:26.115Z,6.13
2023-03-06T06:25:54.204Z,7.22
2023-03-06T06:28:20.934Z,7.13
2023-03-06T06:30:47.702Z,6.85
2023-03-06T06:33:14.471Z,7.53
2023-03-06T06:35:41.258Z,8.27
2023-03-06T06:38:09.053Z,7.55
2023-03-06T06:40:35.907Z,5.40
2023-03-06T06:43:04.060Z,7.43
2023-03-06T06:45:30.837Z,8.02
2023-03-06T06:47:57.679Z,8.30
2023-03-06T06:50:24.459Z,9.63
2023-03-06T06:52:51.230Z,8.90
2023-03-06T06:55:20.459Z,7.90
2023-03-06T06:57:47.410Z,7.20
2023-03-06T07:00:16.808Z,9.02
2023-03-06T07:02:43.582Z,8.48
2023-03-06T07:05:10.687Z,9.00
2023-03-06T07:07:38.613Z,8.10
2023-03-06T07:10:08.537Z,6.35
2023-03-06T07:12:35.418Z,7.13
2023-03-06T07:15:02.924Z,7.88
2023-03-06T07:17:31.114Z,7.80
2023-03-06T07:19:57.829Z,7.57
2023-03-06T07:22:24.592Z,8.23
2023-03-06T07:24:51.599Z,8.35
2023-03-06T07:27:20.444Z,9.10
2023-03-06T07:29:47.196Z,7.85
2023-03-06T07:32:14.021Z,6.90
2023-03-06T07:34:42.147Z,7.97
2023-03-06T07:37:08.954Z,9.15
2023-03-06T07:39:35.706Z,7.32
2023-03-06T07:42:02.475Z,5.75
2023-03-06T07:44:29.208Z,7.20
2023-03-06T07:46:56.141Z,6.00
2023-03-06T07:49:22.913Z,6.35
2023-03-06T07:51:51.000Z,5.82
2023-03-06T07:54:17.715Z,5.97
2023-03-06T07:56:44.511Z,6.05
2023-03-06T07:59:11.629Z,5.07
2023-03-06T08:01:38.349Z,5.95
2023-03-06T08:04:05.450Z,4.95
2023-03-06T08:06:32.805Z,5.57
2023-03-06T08:09:00.925Z,6.50
2023-03-06T08:11:29.534Z,5.83
2023-03-06T08:13:57.458Z,5.40
2023-03-06T08:16:26.317Z,5.07
2023-03-06T08:18:53.595Z,4.32
2023-03-06T08:21:22.716Z,4.03
2023-03-06T08:23:50.381Z,4.35
2023-03-06T08:26:20.660Z,3.80
2023-03-06T08:28:47.609Z,3.22
2023-03-06T08:31:24.713Z,3.97
2023-03-06T08:33:51.629Z,6.32
2023-03-06T08:36:18.450Z,3.75
2023-03-06T08:38:46.645Z,3.20
2023-03-06T08:41:13.452Z,3.63
2023-03-06T08:43:41.594Z,2.55
2023-03-06T08:46:09.726Z,2.50
2023-03-06T08:48:36.450Z,2.67
2023-03-06T08:51:03.505Z,2.30
2023-03-06T08:53:42.163Z,2.60
2023-03-06T08:56:16.093Z,2.60
2023-03-06T08:58:44.551Z,3.05
2023-03-06T09:01:14.111Z,2.58
2023-03-06T09:03:40.831Z,3.97
2023-03-06T09:06:07.648Z,2.42
2023-03-06T09:08:34.392Z,3.25
2023-03-06T09:11:01.196Z,2.10
2023-03-06T09:13:28.290Z,2.40
2023-03-06T09:15:56.336Z,2.80
2023-03-06T09:18:23.137Z,2.87
2023-03-06T09:20:49.910Z,2.97
2023-03-06T09:23:16.712Z,2.60
2023-03-06T09:25:44.366Z,2.42
2023-03-06T09:28:12.261Z,1.58
2023-03-06T09:33:08.560Z,1.75
2023-03-06T09:35:35.703Z,1.50
2023-03-06T09:38:02.511Z,1.58
2023-03-06T09:40:38.837Z,1.60
2023-03-06T09:43:05.638Z,2.63
2023-03-06T09:45:36.462Z,1.58
2023-03-06T09:48:08.157Z,1.70
2023-03-06T09:50:44.120Z,1.40
2023-03-06T09:53:37.425Z,2.78
2023-03-06T09:56:10.610Z,5.93
2023-03-06T09:58:43.379Z,1.52
2023-03-06T10:01:19.520Z,1.40
2023-03-06T10:03:50.929Z,2.42
2023-03-06T10:06:23.888Z,1.10
2023-03-06T10:08:57.818Z,1.10
2023-03-06T10:11:31.200Z,1.00
2023-03-06T10:14:14.157Z,1.10
2023-03-06T10:16:41.382Z,1.90
2023-03-06T10:19:14.929Z,0.85
2023-03-06T10:21:53.061Z,1.10
2023-03-06T10:24:38.903Z,1.10
2023-03-06T10:27:17.366Z,0.82
2023-03-06T10:30:02.114Z,0.50
2023-03-06T10:32:47.424Z,0.82
2023-03-06T10:35:19.062Z,0.80
2023-03-06T10:37:48.360Z,0.52
2023-03-06T10:40:18.016Z,0.80
2023-03-06T10:42:44.814Z,1.42
2023-03-06T10:45:13.887Z,0.57
2023-03-06T10:50:23.945Z,0.50
2023-03-06T10:53:03.965Z,0.70
2023-03-06T10:55:32.206Z,0.70
2023-03-06T10:58:18.356Z,0.80
2023-03-06T11:00:45.680Z,0.82
2023-03-06T11:03:22.268Z,0.90
2023-03-06T11:06:11.477Z,0.90
2023-03-06T11:08:42.089Z,1.20
2023-03-06T11:11:12.486Z,0.70
2023-03-06T11:13:41.318Z,0.70
2023-03-06T11:16:22.709Z,0.60
2023-03-06T11:18:57.974Z,0.70
2023-03-06T11:21:31.739Z,1.10
2023-03-06T11:24:03.723Z,0.98
2023-03-06T11:26:45.575Z,0.57
2023-03-06T11:29:24.425Z,1.38
2023-03-06T11:31:55.587Z,0.68
2023-03-06T11:34:33.742Z,2.08
2023-03-06T11:37:05.588Z,2.05
2023-03-06T11:39:38.756Z,0.85
2023-03-06T11:42:12.927Z,1.05
2023-03-06T11:44:52.909Z,0.90
2023-03-06T11:47:24.107Z,1.00
2023-03-06T11:49:58.836Z,1.75
2023-03-06T11:52:33.842Z,1.00
2023-03-06T11:55:02.291Z,0.80
2023-03-06T11:57:35.049Z,0.98
2023-03-06T12:00:13.557Z,1.27
2023-03-06T12:02:58.928Z,1.70
2023-03-06T12:05:34.590Z,1.13
2023-03-06T12:08:15.458Z,1.70
2023-03-06T12:10:51.597Z,1.15
2023-03-06T12:13:47.860Z,1.73
2023-03-06T12:16:50.407Z,1.45
2023-03-06T12:19:29.619Z,1.85
2023-03-06T12:22:08.772Z,1.52
2023-03-06T12:24:54.683Z,1.85
2023-03-06T12:27:30.072Z,1.80
2023-03-06T12:30:14.432Z,1.90
2023-03-06T12:32:51.332Z,1.83
2023-03-06T12:35:34.459Z,1.80
2023-03-06T12:38:11.844Z,1.48
2023-03-06T12:40:54.227Z,2.10
2023-03-06T12:43:57.870Z,2.72
2023-03-06T12:46:26.639Z,2.58
2023-03-06T12:49:02.146Z,3.35
2023-03-06T12:51:29.974Z,2.58
2023-03-06T12:53:58.952Z,3.00
2023-03-06T12:58:58.928Z,3.67
2023-03-06T13:01:52.106Z,2.40
2023-03-06T13:04:31.410Z,3.40
2023-03-06T13:07:30.049Z,3.95
2023-03-06T13:10:11.352Z,2.83
2023-03-06T13:12:53.542Z,2.70
2023-03-06T13:15:46.424Z,2.65
2023-03-06T13:18:48.777Z,3.22
2023-03-06T13:21:48.092Z,3.90
2023-03-06T13:24:17.894Z,4.07
2023-03-06T13:27:34.877Z,4.47
2023-03-06T13:30:23.564Z,4.28
2023-03-06T13:32:54.020Z,5.82
2023-03-06T13:35:52.410Z,4.65
2023-03-06T13:38:54.803Z,4.43
2023-03-06T13:41:40.411Z,4.00
2023-03-06T13:44:46.934Z,4.90
2023-03-06T13:47:39.746Z,4.35
2023-03-06T13:50:34.318Z,4.18
2023-03-06T13:53:18.454Z,4.90
2023-03-06T13:55:59.772Z,4.72
2023-03-06T13:58:51.501Z,4.88
2023-03-06T14:01:38.823Z,4.05
2023-03-06T14:04:35.978Z,5.40
2023-03-06T14:07:18.805Z,5.28
2023-03-06T14:09:46.832Z,6.22
2023-03-06T14:12:18.680Z,4.75
2023-03-06T14:14:51.908Z,5.40
2023-03-06T14:17:25.384Z,5.13
2023-03-06T14:19:52.362Z,5.40
2023-03-06T14:22:23.212Z,5.85
2023-03-06T14:24:58.231Z,3.50
2023-03-06T14:27:43.393Z,3.88
2023-03-06T14:30:13.792Z,4.30
2023-03-06T14:32:41.070Z,4.28
2023-03-06T14:35:27.058Z,3.90
2023-03-06T14:37:58.812Z,4.00
2023-03-06T14:40:30.114Z,4.07
2023-03-06T14:43:18.158Z,5.32
2023-03-06T14:45:50.550Z,4.53
2023-03-06T14:48:17.543Z,3.70
2023-03-06T14:50:49.135Z,3.53
2023-03-06T14:53:20.830Z,3.53
2023-03-06T14:55:49.758Z,4.13
2023-03-06T14:58:19.893Z,5.15
2023-03-06T15:00:49.803Z,3.97
2023-03-06T15:03:19.209Z,5.03
2023-03-06T15:05:47.342Z,5.50
2023-03-06T15:08:21.971Z,5.87
2023-03-06T15:10:57.808Z,5.70
2023-03-06T15:13:26.623Z,6.45
2023-03-06T15:15:59.705Z,6.30
2023-03-06T15:18:29.432Z,6.10
2023-03-06T15:21:07.771Z,6.18
2023-03-06T15:23:39.155Z,5.07
2023-03-06T15:26:22.087Z,6.90
2023-03-06T15:29:10.634Z,6.93
2023-03-06T15:31:38.719Z,7.60
2023-03-06T15:34:20.731Z,6.00
2023-03-06T15:36:50.251Z,6.68
2023-03-06T15:39:30.677Z,5.68
2023-03-06T15:41:58.733Z,5.63
2023-03-06T15:44:26.134Z,7.22
2023-03-06T15:46:59.264Z,5.78
2023-03-06T15:49:33.311Z,6.78
2023-03-06T15:52:00.051Z,7.10
2023-03-06T15:54:28.151Z,4.68
2023-03-06T15:56:54.886Z,8.10
2023-03-06T15:59:24.412Z,6.38
2023-03-06T16:01:51.996Z,7.65
2023-03-06T16:04:18.899Z,6.63
2023-03-06T16:06:47.148Z,7.15
2023-03-06T16:09:14.319Z,6.95
2023-03-06T16:11:44.252Z,6.60
2023-03-06T16:14:18.513Z,8.23
2023-03-06T16:16:45.578Z,6.75
2023-03-06T16:19:25.246Z,6.35
2023-03-06T16:21:52.818Z,7.07
2023-03-06T16:24:19.610Z,6.93
2023-03-06T16:26:49.387Z,7.25
2023-03-06T16:29:17.626Z,7.57
2023-03-06T16:31:44.634Z,8.15
2023-03-06T16:34:11.360Z,10.23
2023-03-06T16:36:38.467Z,7.97
2023-03-06T16:39:05.355Z,11.45
2023-03-06T16:41:32.349Z,10.65
2023-03-06T16:44:00.460Z,9.77
2023-03-06T16:46:27.268Z,9.63
2023-03-06T16:48:54.039Z,8.80
2023-03-06T16:51:22.306Z,9.68
2023-03-06T16:53:49.630Z,9.52
2023-03-06T16:56:18.939Z,8.43
2023-03-06T16:58:46.167Z,8.02
2023-03-06T17:01:16.954Z,11.82
2023-03-06T17:03:43.901Z,10.50
2023-03-06T17:06:15.593Z,10.98
2023-03-06T17:08:42.371Z,9.90
2023-03-06T17:11:09.276Z,11.18
2023-03-06T17:13:36.114Z,14.55
2023-03-06T17:16:03.009Z,10.00
2023-03-06T17:18:31.475Z,10.52
2023-03-06T17:20:58.450Z,12.35
2023-03-06T17:23:26.942Z,9.38
2023-03-06T17:26:02.823Z,12.25
2023-03-06T17:28:29.638Z,10.70
2023-03-06T17:30:56.429Z,12.02
2023-03-06T17:33:23.281Z,9.80
2023-03-06T17:35:57.783Z,10.70
2023-03-06T17:38:24.644Z,12.70
2023-03-06T17:40:51.421Z,9.45
2023-03-06T17:43:18.240Z,13.57
2023-03-06T17:45:44.995Z,10.40
2023-03-06T17:48:11.716Z,10.18
2023-03-06T17:50:38.637Z,15.63
2023-03-06T17:53:06.726Z,11.10
2023-03-06T17:55:33.471Z,11.77
2023-03-06T17:58:00.212Z,12.20
2023-03-06T18:00:27.140Z,15.50
2023-03-06T18:02:56.225Z,10.85
2023-03-06T18:05:23.245Z,14.50
2023-03-06T18:07:49.977Z,12.00
2023-03-06T18:10:18.274Z,10.63
2023-03-06T18:12:45.463Z,11.93
2023-03-06T18:15:12.490Z,12.10
2023-03-06T18:17:39.230Z,7.38
2023-03-06T18:20:06.953Z,6.85
2023-03-06T18:22:33.968Z,12.65
2023-03-06T18:25:00.711Z,13.27
2023-03-06T18:27:32.609Z,12.10
2023-03-06T18:29:59.434Z,10.52
2023-03-06T18:32:26.299Z,10.60
2023-03-06T18:34:53.283Z,10.27
2023-03-06T18:37:20.062Z,9.82
2023-03-06T18:39:46.933Z,9.55
2023-03-06T18:42:13.733Z,11.45
2023-03-06T18:44:42.028Z,10.75
2023-03-06T18:47:08.816Z,10.40
2023-03-06T18:49:35.748Z,8.38
2023-03-06T18:52:02.467Z,9.70
2023-03-06T18:54:29.289Z,9.48
2023-03-06T18:56:56.125Z,8.23
2023-03-06T18:59:22.896Z,9.43
2023-03-06T19:01:50.993Z,7.97
2023-03-06T19:04:19.222Z,5.43
2023-03-06T19:06:46.101Z,8.23
2023-03-06T19:09:12.810Z,8.65
2023-03-06T19:11:39.537Z,7.38
2023-03-06T19:14:06.677Z,9.20
2023-03-06T19:16:33.982Z,8.23
2023-03-06T19:19:02.154Z,7.60
2023-03-06T19:21:29.065Z,10.00
2023-03-06T19:23:56.838Z,8.98
2023-03-06T19:26:23.926Z,7.40
2023-03-06T19:28:50.998Z,11.63
2023-03-06T19:31:20.420Z,7.55
2023-03-06T19:33:48.767Z,8.90
2023-03-06T19:36:19.408Z,11.05
2023-03-06T19:38:46.404Z,8.63
2023-03-06T19:41:13.609Z,7.68
2023-03-06T19:43:40.941Z,9.68
2023-03-06T19:46:11.277Z,7.63
2023-03-06T19:48:38.193Z,8.75
2023-03-06T19:51:06.274Z,10.40
2023-03-06T19:53:34.705Z,9.43
2023-03-06T19:56:07.153Z,10.48
2023-03-06T19:58:34.246Z,8.63
2023-03-06T20:01:06.170Z,7.75
2023-03-06T20:03:33.290Z,10.98
2023-03-06T20:06:00.939Z,9.48
2023-03-06T20:08:27.712Z,9.55
2023-03-06T20:10:55.801Z,10.80
2023-03-06T20:13:23.227Z,9.57
2023-03-06T20:15:50.005Z,9.57
2023-03-06T20:18:17.303Z,9.15
2023-03-06T20:20:44.371Z,9.68
2023-03-06T20:23:12.360Z,11.93
2023-03-06T20:25:39.109Z,11.60
2023-03-06T20:28:07.262Z,10.80
2023-03-06T20:30:38.440Z,13.32
2023-03-06T20:33:05.677Z,10.05
2023-03-06T20:35:32.524Z,13.20
2023-03-06T20:37:59.343Z,10.93
2023-03-06T20:40:26.302Z,12.82
2023-03-06T20:42:53.058Z,10.32
2023-03-06T20:45:22.426Z,11.85
2023-03-06T20:47:49.178Z,10.05
2023-03-06T20:50:16.425Z,12.30
2023-03-06T20:52:43.506Z,6.20
2023-03-06T20:55:10.591Z,10.05
2023-03-06T20:57:37.330Z,11.32
2023-03-06T21:00:05.129Z,9.93
2023-03-06T21:02:33.228Z,12.63
2023-03-06T21:05:00.060Z,11.30
2023-03-06T21:07:26.919Z,11.02
2023-03-06T21:09:53.678Z,12.05
2023-03-06T21:12:20.405Z,7.30
2023-03-06T21:14:47.163Z,11.65
2023-03-06T21:17:14.024Z,10.55
2023-03-06T21:19:42.351Z,10.88
2023-03-06T21:22:09.083Z,12.43
2023-03-06T21:24:36.192Z,9.52
2023-03-06T21:27:04.140Z,11.82
2023-03-06T21:29:30.999Z,9.48
2023-03-06T21:31:59.008Z,9.57
2023-03-06T21:34:26.016Z,12.13
2023-03-06T21:36:54.176Z,8.57
2023-03-06T21:39:21.403Z,9.77
2023-03-06T21:41:48.606Z,9.63
2023-03-06T21:44:15.399Z,11.48
2023-03-06T21:46:42.142Z,8.75
2023-03-06T21:49:09.002Z,9.45
2023-03-06T21:51:35.738Z,8.50
2023-03-06T21:54:05.816Z,8.45
2023-03-06T21:56:32.722Z,13.45
2023-03-06T21:58:59.522Z,11.88
2023-03-06T22:01:27.998Z,12.50
2023-03-06T22:03:54.868Z,9.63
2023-03-06T22:06:23.816Z,10.45
2023-03-06T22:08:50.976Z,10.63
2023-03-06T22:11:20.899Z,10.02
2023-03-06T22:13:48.179Z,8.80
2023-03-06T22:16:15.909Z,8.88
2023-03-06T22:18:44.824Z,11.35
2023-03-06T22:21:13.802Z,8.10
2023-03-06T22:26:09.443Z,6.82
2023-03-06T22:31:06.098Z,10.90
2023-03-06T22:33:32.910Z,7.95
2023-03-06T22:36:00.762Z,11.65
2023-03-06T22:38:27.470Z,8.90
2023-03-06T22:40:56.716Z,5.65
2023-03-06T22:43:23.557Z,7.93
2023-03-06T22:45:51.773Z,8.18
2023-03-06T22:48:18.585Z,4.95
2023-03-06T22:50:45.337Z,4.28
2023-03-06T22:53:12.085Z,5.70
2023-03-06T22:55:38.818Z,5.55
2023-03-06T22:58:05.583Z,5.45
2023-03-06T23:00:32.355Z,5.55
2023-03-06T23:03:00.464Z,4.93
2023-03-06T23:05:29.371Z,5.70
2023-03-06T23:10:22.937Z,4.07
2023-03-06T23:12:49.653Z,3.60
2023-03-06T23:15:16.595Z,4.38
2023-03-06T23:17:43.352Z,3.72
2023-03-06T23:20:12.880Z,4.43
2023-03-06T23:22:39.776Z,5.28
2023-03-06T23:25:07.332Z,4.13
2023-03-06T23:27:36.363Z,4.70
2023-03-06T23:32:31.663Z,5.18
2023-03-06T23:34:58.486Z,4.40
2023-03-06T23:37:26.651Z,6.85
2023-03-06T23:39:53.414Z,5.35
2023-03-06T23:42:21.212Z,5.60
2023-03-06T23:44:47.942Z,3.65
2023-03-06T23:47:14.870Z,4.40
2023-03-06T23:49:41.905Z,5.10
2023-03-06T23:52:08.685Z,5.22
2023-03-06T23:54:36.755Z,3.72
2023-03-06T23:57:03.755Z,4.47
2023-03-06T23:59:30.666Z,5.68
